sensor_id;sensor_type;location;lat;lon;timestamp;temperature;humidity
24176;DHT22;12324;48.146;11.502;2023-03-31T06:54:48;10.30;99.90
24176;DHT22;12324;48.146;11.502;2023-03-31T06:57:15;9.10;99.90
24176;DHT22;12324;48.146;11.502;2023-03-31T06:59:41;9.00;99.90
24176;DHT22;12324;48.146;11.502;2023-03-31T07:02:09;9.00;99.90
24176;DHT22;12324;48.146;11.502;2023-03-31T07:04:36;9.00;99.90
24176;DHT22;12324;48.146;11.502;2023-03-31T07:07:03;8.90;99.90
24176;DHT22;12324;48.146;11.502;2023-03-31T07:09:30;9.00;99.90
24176;DHT22;12324;48.146;11.502;2023-03-31T07:11:56;9.00;99.90
24176;DHT22;12324;48.146;11.502;2023-03-31T07:14:23;9.00;99.90
24176;DHT22;12324;48.146;11.502;2023-03-31T07:16:50;8.90;99.90
24176;DHT22;12324;48.146;11.502;2023-03-31T07:19:17;9.00;99.90
24176;DHT22;12324;48.146;11.502;2023-03-31T07:21:44;9.00;99.90
24176;DHT22;12324;48.146;11.502;2023-03-31T07:24:11;8.90;99.90
24176;DHT22;12324;48.146;11.502;2023-03-31T07:26:38;8.90;99.90
24176;DHT22;12324;48.146;11.502;2023-03-31T07:29:04;8.80;99.90
24176;DHT22;12324;48.146;11.502;2023-03-31T07:31:31;8.90;99.90
24176;DHT22;12324;48.146;11.502;2023-03-31T07:33:58;8.80;99.90
24176;DHT22;12324;48.146;11.502;2023-03-31T07:36:24;8.80;99.90
24176;DHT22;12324;48.146;11.502;2023-03-31T07:38:51;8.80;99.90
24176;DHT22;12324;48.146;11.502;2023-03-31T07:41:19;8.90;99.90
24176;DHT22;12324;48.146;11.502;2023-03-31T07:43:47;8.80;99.90
24176;DHT22;12324;48.146;11.502;2023-03-31T07:46:18;8.90;99.90
24176;DHT22;12324;48.146;11.502;2023-03-31T07:48:46;8.80;99.90
24176;DHT22;12324;48.146;11.502;2023-03-31T07:51:18;8.90;99.90
24176;DHT22;12324;48.146;11.502;2023-03-31T07:53:46;8.90;99.90
24176;DHT22;12324;48.146;11.502;2023-03-31T07:56:14;8.90;99.90
24176;DHT22;12324;48.146;11.502;2023-03-31T07:58:43;9.00;99.90
24176;DHT22;12324;48.146;11.502;2023-03-31T08:01:15;9.00;99.90
24176;DHT22;12324;48.146;11.502;2023-03-31T08:03:43;9.10;99.90
24176;DHT22;12324;48.146;11.502;2023-03-31T08:06:11;9.20;99.90
24176;DHT22;12324;48.146;11.502;2023-03-31T08:08:38;9.30;99.90
24176;DHT22;12324;48.146;11.502;2023-03-31T10:34:45;9.40;99.90
24176;DHT22;12324;48.146;11.502;2023-03-31T10:37:20;13.80;99.90
24176;DHT22;12324;48.146;11.502;2023-03-31T10:39:56;13.90;99.90
24176;DHT22;12324;48.146;11.502;2023-03-31T10:42:24;14.10;99.90
24176;DHT22;12324;48.146;11.502;2023-03-31T10:47:59;14.20;99.90
24176;DHT22;12324;48.146;11.502;2023-03-31T10:50:33;14.10;99.90
24176;DHT22;12324;48.146;11.502;2023-03-31T10:53:02;14.00;99.90
24176;DHT22;12324;48.146;11.502;2023-03-31T10:55:58;14.00;99.90
24176;DHT22;12324;48.146;11.502;2023-03-31T10:58:46;14.20;99.90
24176;DHT22;12324;48.146;11.502;2023-03-31T11:01:52;14.30;99.90
24176;DHT22;12324;48.146;11.502;2023-03-31T11:04:28;14.30;99.90
24176;DHT22;12324;48.146;11.502;2023-03-31T11:10:43;13.90;99.90
24176;DHT22;12324;48.146;11.502;2023-03-31T11:13:25;13.90;99.90
24176;DHT22;12324;48.146;11.502;2023-03-31T11:16:17;13.80;99.90
24176;DHT22;12324;48.146;11.502;2023-03-31T11:22:04;13.70;99.90
24176;DHT22;12324;48.146;11.502;2023-03-31T12:05:50;13.10;99.90
24176;DHT22;12324;48.146;11.502;2023-03-31T13:17:36;11.60;99.90
24176;DHT22;12324;48.146;11.502;2023-03-31T13:59:27;13.00;99.90
24176;DHT22;12324;48.146;11.502;2023-03-31T14:05:11;13.40;99.90
24176;DHT22;12324;48.146;11.502;2023-03-31T14:07:49;13.50;99.90
24176;DHT22;12324;48.146;11.502;2023-03-31T14:10:34;13.30;99.90
24176;DHT22;12324;48.146;11.502;2023-03-31T14:13:16;13.10;99.90
24176;DHT22;12324;48.146;11.502;2023-03-31T14:15:53;12.90;99.90
24176;DHT22;12324;48.146;11.502;2023-03-31T14:18:28;12.90;99.90
24176;DHT22;12324;48.146;11.502;2023-03-31T14:26:00;12.50;99.90
24176;DHT22;12324;48.146;11.502;2023-03-31T14:34:11;12.20;99.90
24176;DHT22;12324;48.146;11.502;2023-03-31T14:39:14;12.20;99.90
24176;DHT22;12324;48.146;11.502;2023-03-31T15:50:07;9.40;99.90
24176;DHT22;12324;48.146;11.502;2023-03-31T15:52:46;11.70;99.90
24176;DHT22;12324;48.146;11.502;2023-03-31T15:55:31;11.70;99.90
24176;DHT22;12324;48.146;11.502;2023-03-31T15:57:59;11.70;99.90
24176;DHT22;12324;48.146;11.502;2023-03-31T16:03:04;11.70;99.90
24176;DHT22;12324;48.146;11.502;2023-03-31T16:05:56;11.90;99.90
24176;DHT22;12324;48.146;11.502;2023-03-31T16:08:49;11.80;99.90
24176;DHT22;12324;48.146;11.502;2023-03-31T16:11:24;11.70;99.90
24176;DHT22;12324;48.146;11.502;2023-03-31T16:13:55;12.40;99.90
24176;DHT22;12324;48.146;11.502;2023-03-31T16:16:26;12.60;99.90
24176;DHT22;12324;48.146;11.502;2023-03-31T16:19:07;12.50;99.90
24176;DHT22;12324;48.146;11.502;2023-03-31T16:21:39;12.70;99.90
24176;DHT22;12324;48.146;11.502;2023-03-31T16:24:07;12.80;99.90
24176;DHT22;12324;48.146;11.502;2023-03-31T16:26:35;12.70;99.90
24176;DHT22;12324;48.146;11.502;2023-03-31T16:29:03;12.50;99.90
24176;DHT22;12324;48.146;11.502;2023-03-31T16:31:34;12.30;99.90
24176;DHT22;12324;48.146;11.502;2023-03-31T16:34:03;12.10;99.90
24176;DHT22;12324;48.146;11.502;2023-03-31T16:36:30;11.90;99.90
24176;DHT22;12324;48.146;11.502;2023-03-31T16:38:57;11.80;99.90
24176;DHT22;12324;48.146;11.502;2023-03-31T16:41:28;11.70;99.90
24176;DHT22;12324;48.146;11.502;2023-03-31T16:56:12;11.70;99.90
24176;DHT22;12324;48.146;11.502;2023-03-31T17:11:09;10.20;99.90
24176;DHT22;12324;48.146;11.502;2023-03-31T17:13:39;7.50;99.90
24176;DHT22;12324;48.146;11.502;2023-03-31T17:16:07;7.50;99.90
24176;DHT22;12324;48.146;11.502;2023-03-31T17:18:53;7.40;99.90
24176;DHT22;12324;48.146;11.502;2023-03-31T17:21:20;7.40;99.90
24176;DHT22;12324;48.146;11.502;2023-03-31T17:26:15;7.40;99.90
24176;DHT22;12324;48.146;11.502;2023-03-31T17:28:42;7.50;99.90
24176;DHT22;12324;48.146;11.502;2023-03-31T17:31:17;7.40;99.90
24176;DHT22;12324;48.146;11.502;2023-03-31T17:33:44;7.50;99.90
24176;DHT22;12324;48.146;11.502;2023-03-31T17:36:12;7.40;99.90
24176;DHT22;12324;48.146;11.502;2023-03-31T17:38:38;7.40;99.90
24176;DHT22;12324;48.146;11.502;2023-03-31T17:41:07;7.40;99.90
24176;DHT22;12324;48.146;11.502;2023-03-31T17:43:34;7.30;99.90
24176;DHT22;12324;48.146;11.502;2023-03-31T17:46:04;7.40;99.90
24176;DHT22;12324;48.146;11.502;2023-03-31T17:48:32;7.40;99.90
24176;DHT22;12324;48.146;11.502;2023-03-31T17:51:04;7.40;99.90
24176;DHT22;12324;48.146;11.502;2023-03-31T17:53:31;7.40;99.90
24176;DHT22;12324;48.146;11.502;2023-03-31T17:55:58;7.40;99.90
24176;DHT22;12324;48.146;11.502;2023-03-31T17:58:25;7.40;99.90
24176;DHT22;12324;48.146;11.502;2023-03-31T18:00:52;7.40;99.90
24176;DHT22;12324;48.146;11.502;2023-03-31T18:03:19;7.40;99.90
24176;DHT22;12324;48.146;11.502;2023-03-31T18:05:46;7.40;99.90
24176;DHT22;12324;48.146;11.502;2023-03-31T18:08:13;7.40;99.90
24176;DHT22;12324;48.146;11.502;2023-03-31T18:10:39;7.40;99.90
24176;DHT22;12324;48.146;11.502;2023-03-31T18:13:08;7.40;99.90
24176;DHT22;12324;48.146;11.502;2023-03-31T18:15:35;7.40;99.90
24176;DHT22;12324;48.146;11.502;2023-03-31T18:18:02;7.40;99.90
24176;DHT22;12324;48.146;11.502;2023-03-31T18:20:29;7.50;99.90
24176;DHT22;12324;48.146;11.502;2023-03-31T18:22:56;7.40;99.90
24176;DHT22;12324;48.146;11.502;2023-03-31T18:25:23;7.40;99.90
24176;DHT22;12324;48.146;11.502;2023-03-31T18:27:50;7.50;99.90
24176;DHT22;12324;48.146;11.502;2023-03-31T18:30:17;7.40;99.90
24176;DHT22;12324;48.146;11.502;2023-03-31T18:32:44;7.40;99.90
24176;DHT22;12324;48.146;11.502;2023-03-31T18:35:10;7.40;99.90
24176;DHT22;12324;48.146;11.502;2023-03-31T18:37:37;7.50;99.90
24176;DHT22;12324;48.146;11.502;2023-03-31T18:40:04;7.50;99.90
24176;DHT22;12324;48.146;11.502;2023-03-31T18:42:31;7.40;99.90
24176;DHT22;12324;48.146;11.502;2023-03-31T18:44:57;7.70;99.90
24176;DHT22;12324;48.146;11.502;2023-03-31T18:47:24;7.50;99.90
24176;DHT22;12324;48.146;11.502;2023-03-31T18:49:51;7.60;99.90
24176;DHT22;12324;48.146;11.502;2023-03-31T18:52:21;7.50;99.90
24176;DHT22;12324;48.146;11.502;2023-03-31T18:54:48;7.50;99.90
24176;DHT22;12324;48.146;11.502;2023-03-31T18:57:16;7.60;99.90
24176;DHT22;12324;48.146;11.502;2023-03-31T18:59:43;7.60;99.90
24176;DHT22;12324;48.146;11.502;2023-03-31T19:02:12;7.60;99.90
24176;DHT22;12324;48.146;11.502;2023-03-31T19:04:39;7.50;99.90
24176;DHT22;12324;48.146;11.502;2023-03-31T19:07:06;7.60;99.90
24176;DHT22;12324;48.146;11.502;2023-03-31T19:09:32;7.50;99.90
24176;DHT22;12324;48.146;11.502;2023-03-31T19:11:59;7.50;99.90
24176;DHT22;12324;48.146;11.502;2023-03-31T19:14:26;7.60;99.90
24176;DHT22;12324;48.146;11.502;2023-03-31T19:16:53;7.60;99.90
24176;DHT22;12324;48.146;11.502;2023-03-31T19:19:19;7.60;99.90
24176;DHT22;12324;48.146;11.502;2023-03-31T19:21:46;7.70;99.90
24176;DHT22;12324;48.146;11.502;2023-03-31T19:24:14;7.60;99.90
24176;DHT22;12324;48.146;11.502;2023-03-31T19:26:41;7.60;99.90
24176;DHT22;12324;48.146;11.502;2023-03-31T19:29:08;7.60;99.90
24176;DHT22;12324;48.146;11.502;2023-03-31T19:31:35;7.60;99.90
24176;DHT22;12324;48.146;11.502;2023-03-31T19:34:07;7.70;99.90
24176;DHT22;12324;48.146;11.502;2023-03-31T19:36:37;7.80;99.90
24176;DHT22;12324;48.146;11.502;2023-03-31T19:39:04;7.70;99.90
24176;DHT22;12324;48.146;11.502;2023-03-31T19:41:34;7.70;99.90
24176;DHT22;12324;48.146;11.502;2023-03-31T19:44:01;7.80;99.90
24176;DHT22;12324;48.146;11.502;2023-03-31T19:46:31;7.80;99.90
24176;DHT22;12324;48.146;11.502;2023-03-31T19:48:58;7.80;99.90
24176;DHT22;12324;48.146;11.502;2023-03-31T19:51:24;7.80;99.90
24176;DHT22;12324;48.146;11.502;2023-03-31T19:53:53;7.90;99.90
24176;DHT22;12324;48.146;11.502;2023-03-31T19:56:19;7.80;99.90
24176;DHT22;12324;48.146;11.502;2023-03-31T19:58:50;7.80;99.90
24176;DHT22;12324;48.146;11.502;2023-03-31T20:01:23;7.90;99.90
24176;DHT22;12324;48.146;11.502;2023-03-31T20:03:51;7.90;99.90
24176;DHT22;12324;48.146;11.502;2023-03-31T20:06:21;7.90;99.90
24176;DHT22;12324;48.146;11.502;2023-03-31T20:08:59;8.10;99.90
24176;DHT22;12324;48.146;11.502;2023-03-31T20:11:28;8.10;99.90
24176;DHT22;12324;48.146;11.502;2023-03-31T20:13:57;8.10;99.90
24176;DHT22;12324;48.146;11.502;2023-03-31T20:16:25;8.20;99.90
24176;DHT22;12324;48.146;11.502;2023-03-31T20:19:01;8.20;99.90
24176;DHT22;12324;48.146;11.502;2023-03-31T20:21:32;8.20;99.90
24176;DHT22;12324;48.146;11.502;2023-03-31T20:23:59;8.20;99.90
24176;DHT22;12324;48.146;11.502;2023-03-31T23:41:32;8.10;99.90
24176;DHT22;12324;48.146;11.502;2023-03-31T23:43:59;7.80;99.90
24176;DHT22;12324;48.146;11.502;2023-03-31T23:46:26;7.70;99.90
24176;DHT22;12324;48.146;11.502;2023-03-31T23:48:53;7.70;99.90
24176;DHT22;12324;48.146;11.502;2023-03-31T23:51:20;7.60;99.90
24176;DHT22;12324;48.146;11.502;2023-03-31T23:53:47;7.60;99.90
24176;DHT22;12324;48.146;11.502;2023-03-31T23:56:13;7.60;99.90
24176;DHT22;12324;48.146;11.502;2023-03-31T23:58:41;7.50;99.90
